Terminal Aerodrome Forecast
Issued by NWS Tampa Bay Area, FL

Current Version | Previous Version | Text Only | Print | Product List | Glossary On
Versions: 1 2 3 4 5 6 7 8 9 10 11 12 13 14 15 16 17 18 19 20
000
FTUS42 KTBW 310009 AAA
TAFFMY
TAF AMD
KFMY 310009Z 3100/3124 VRB06KT P6SM VCTS SCT025CB BKN100
      TEMPO 3100/3101 VRB15G25KT 3SM TSRA BKN025CB
     FM310400 VRB03KT P6SM SCT025 BKN150
     FM311300 10004KT P6SM FEW030 BKN110
     FM311800 13006KT P6SM VCTS SCT025CB BKN100
     FM312000 18007KT P6SM VCTS SCT025CB BKN100=

USA.gov is the U.S. government's official web portal to all federal, state and local government web resources and services.